createdAt,value
2022-08-17T00:02:25.297Z,4.43
2022-08-17T00:04:54.810Z,4.07
2022-08-17T00:07:21.514Z,3.80
2022-08-17T00:09:48.266Z,3.80
2022-08-17T00:12:40.799Z,4.03
2022-08-17T00:15:01.717Z,4.60
2022-08-17T00:17:28.479Z,5.05
2022-08-17T00:19:55.044Z,4.32
2022-08-17T00:22:32.472Z,5.32
2022-08-17T00:25:07.301Z,4.75
2022-08-17T00:27:34.454Z,4.70
2022-08-17T00:30:01.037Z,4.72
2022-08-17T00:33:15.194Z,4.80
2022-08-17T00:35:17.641Z,4.75
2022-08-17T00:37:44.204Z,4.85
2022-08-17T00:40:13.122Z,4.82
2022-08-17T00:42:40.394Z,5.03
2022-08-17T00:45:10.106Z,3.88
2022-08-17T00:47:36.636Z,4.32
2022-08-17T00:50:05.789Z,4.32
2022-08-17T00:52:36.227Z,4.20
2022-08-17T00:55:03.748Z,3.80
2022-08-17T00:57:40.359Z,4.45
2022-08-17T01:00:15.804Z,3.78
2022-08-17T01:02:44.477Z,4.20
2022-08-17T01:05:20.686Z,4.43
2022-08-17T01:07:50.672Z,4.10
2022-08-17T01:11:00.678Z,4.28
2022-08-17T01:13:10.233Z,4.00
2022-08-17T01:15:41.399Z,4.53
2022-08-17T01:18:14.077Z,4.18
2022-08-17T01:21:04.192Z,4.75
2022-08-17T01:23:30.940Z,3.92
2022-08-17T01:25:59.854Z,4.55
2022-08-17T01:28:53.178Z,4.53
2022-08-17T01:31:17.672Z,4.28
2022-08-17T01:33:44.539Z,4.38
2022-08-17T01:36:11.174Z,4.82
2022-08-17T01:38:38.368Z,5.05
2022-08-17T01:41:14.283Z,5.63
2022-08-17T01:43:48.660Z,5.00
2022-08-17T01:46:20.105Z,4.85
2022-08-17T01:48:47.554Z,4.72
2022-08-17T01:51:15.641Z,4.45
2022-08-17T01:53:46.190Z,5.28
2022-08-17T01:56:16.330Z,4.50
2022-08-17T01:58:43.464Z,4.63
2022-08-17T02:01:10.614Z,4.18
2022-08-17T02:03:38.056Z,4.55
2022-08-17T02:06:06.056Z,4.55
2022-08-17T02:09:01.622Z,4.18
2022-08-17T02:11:30.568Z,4.60
2022-08-17T02:14:03.343Z,4.35
2022-08-17T02:16:37.027Z,4.32
2022-08-17T02:19:07.497Z,4.55
2022-08-17T02:21:34.909Z,4.43
2022-08-17T02:24:01.699Z,4.03
2022-08-17T02:26:28.376Z,4.10
2022-08-17T02:28:55.028Z,4.60
2022-08-17T02:31:21.655Z,4.90
2022-08-17T02:33:56.680Z,4.30
2022-08-17T02:36:31.168Z,4.53
2022-08-17T02:38:58.692Z,4.57
2022-08-17T02:41:25.514Z,4.78
2022-08-17T02:43:53.197Z,4.55
2022-08-17T02:46:19.793Z,4.63
2022-08-17T02:48:46.455Z,4.63
2022-08-17T02:51:13.040Z,4.65
2022-08-17T02:53:39.604Z,3.95
2022-08-17T02:56:06.367Z,4.68
2022-08-17T02:58:34.920Z,4.90
2022-08-17T03:01:03.308Z,4.25
2022-08-17T03:03:30.063Z,4.57
2022-08-17T03:05:56.666Z,3.78
2022-08-17T03:08:23.894Z,4.35
2022-08-17T03:10:50.581Z,4.60
2022-08-17T03:13:17.693Z,3.75
2022-08-17T03:15:45.872Z,4.55
2022-08-17T03:18:19.078Z,4.88
2022-08-17T03:20:52.351Z,4.47
2022-08-17T03:23:18.979Z,4.20
2022-08-17T03:25:53.062Z,4.07
2022-08-17T03:28:20.851Z,4.38
2022-08-17T03:30:47.419Z,3.95
2022-08-17T03:33:14.311Z,4.70
2022-08-17T03:35:41.740Z,4.20
2022-08-17T03:38:10.300Z,3.90
2022-08-17T03:40:56.853Z,4.25
2022-08-17T03:43:24.324Z,5.07
2022-08-17T03:46:28.896Z,4.75
2022-08-17T03:49:15.666Z,4.57
2022-08-17T03:52:00.878Z,4.50
2022-08-17T03:54:45.919Z,4.13
2022-08-17T03:57:13.101Z,3.95
2022-08-17T03:59:40.864Z,5.20
2022-08-17T04:02:20.474Z,4.47
2022-08-17T04:04:50.913Z,4.40
2022-08-17T04:07:19.579Z,3.78
2022-08-17T04:09:46.123Z,4.32
2022-08-17T04:12:15.289Z,4.60
2022-08-17T04:14:52.609Z,5.63
2022-08-17T04:17:25.908Z,4.20
2022-08-17T04:19:53.975Z,4.38
2022-08-17T04:22:30.042Z,3.95
2022-08-17T04:25:01.313Z,4.00
2022-08-17T04:27:27.887Z,4.40
2022-08-17T04:29:55.963Z,4.75
2022-08-17T04:32:58.504Z,4.10
2022-08-17T04:35:09.940Z,3.80
2022-08-17T04:37:36.541Z,4.38
2022-08-17T04:40:22.706Z,4.35
2022-08-17T04:43:07.550Z,4.03
2022-08-17T04:45:34.957Z,4.38
2022-08-17T04:48:01.616Z,5.05
2022-08-17T04:50:28.297Z,4.15
2022-08-17T04:52:55.181Z,4.00
2022-08-17T04:55:22.137Z,4.75
2022-08-17T04:57:48.813Z,4.30
2022-08-17T05:00:15.680Z,4.28
2022-08-17T05:02:50.600Z,4.03
2022-08-17T05:05:21.898Z,4.22
2022-08-17T05:07:52.654Z,4.78
2022-08-17T05:10:20.027Z,4.32
2022-08-17T05:12:46.639Z,4.28
2022-08-17T05:15:16.174Z,3.90
2022-08-17T05:17:43.432Z,4.30
2022-08-17T05:20:10.452Z,4.78
2022-08-17T05:22:58.684Z,4.75
2022-08-17T05:25:33.303Z,4.82
2022-08-17T05:28:03.213Z,5.28
2022-08-17T05:30:29.976Z,4.50
2022-08-17T05:32:59.772Z,4.22
2022-08-17T05:35:28.088Z,4.03
2022-08-17T05:37:54.839Z,4.00
2022-08-17T05:40:25.918Z,4.30
2022-08-17T05:43:03.875Z,3.75
2022-08-17T05:45:54.824Z,4.15
2022-08-17T05:48:18.223Z,3.90
2022-08-17T05:51:20.065Z,4.53
2022-08-17T05:53:47.728Z,4.22
2022-08-17T05:56:29.823Z,4.20
2022-08-17T05:59:23.325Z,3.88
2022-08-17T06:02:02.976Z,4.30
2022-08-17T06:05:02.733Z,4.35
2022-08-17T06:07:47.908Z,3.90
2022-08-17T06:10:23.370Z,4.25
2022-08-17T06:13:09.569Z,4.03
2022-08-17T06:16:33.341Z,4.07
2022-08-17T06:19:17.784Z,4.22
2022-08-17T06:21:49.280Z,4.35
2022-08-17T06:24:34.296Z,4.18
2022-08-17T06:27:33.175Z,4.20
2022-08-17T06:30:09.294Z,4.70
2022-08-17T06:32:42.586Z,4.63
2022-08-17T06:35:12.834Z,4.15
2022-08-17T06:37:59.651Z,4.38
2022-08-17T06:40:26.223Z,4.28
2022-08-17T06:43:48.423Z,4.47
2022-08-17T06:46:27.543Z,3.75
2022-08-17T06:48:57.027Z,4.47
2022-08-17T06:51:29.403Z,4.45
2022-08-17T06:54:05.735Z,4.13
2022-08-17T06:56:55.312Z,4.50
2022-08-17T06:59:54.799Z,4.78
2022-08-17T07:02:52.249Z,4.17
2022-08-17T07:05:21.896Z,4.10
2022-08-17T07:08:02.307Z,3.80
2022-08-17T07:10:41.411Z,4.20
2022-08-17T07:13:19.435Z,4.18
2022-08-17T07:15:47.426Z,4.22
2022-08-17T07:18:14.215Z,3.35
2022-08-17T07:20:42.903Z,3.22
2022-08-17T07:23:22.711Z,3.72
2022-08-17T07:25:50.345Z,3.30
2022-08-17T07:28:22.909Z,3.08
2022-08-17T07:30:54.118Z,2.92
2022-08-17T07:33:27.488Z,3.53
2022-08-17T07:35:54.302Z,2.92
2022-08-17T07:38:26.892Z,3.17
2022-08-17T07:41:05.230Z,3.30
2022-08-17T07:43:45.696Z,3.33
2022-08-17T07:46:53.761Z,2.83
2022-08-17T07:49:32.431Z,2.65
2022-08-17T07:52:24.044Z,2.72
2022-08-17T07:54:49.134Z,2.70
2022-08-17T07:57:15.707Z,2.55
2022-08-17T08:00:12.614Z,3.03
2022-08-17T08:02:47.336Z,2.53
2022-08-17T08:05:31.723Z,2.65
2022-08-17T08:08:42.319Z,2.85
2022-08-17T08:11:13.111Z,2.63
2022-08-17T08:13:43.616Z,2.58
2022-08-17T08:16:15.190Z,2.50
2022-08-17T08:18:55.770Z,2.10
2022-08-17T08:21:47.223Z,2.65
2022-08-17T08:24:30.802Z,2.60
2022-08-17T08:27:35.687Z,2.35
2022-08-17T08:30:33.091Z,2.30
2022-08-17T08:33:56.232Z,2.70
2022-08-17T08:37:12.748Z,2.28
2022-08-17T08:39:52.047Z,2.53
2022-08-17T08:42:33.222Z,1.90
2022-08-17T08:45:04.485Z,2.17
2022-08-17T08:47:35.407Z,2.33
2022-08-17T08:50:37.653Z,2.03
2022-08-17T08:53:43.606Z,2.50
2022-08-17T08:56:16.182Z,2.42
2022-08-17T08:59:21.433Z,2.10
2022-08-17T09:02:16.717Z,2.13
2022-08-17T09:05:14.444Z,2.78
2022-08-17T09:07:49.782Z,2.28
2022-08-17T09:10:29.804Z,2.30
2022-08-17T09:13:10.275Z,2.25
2022-08-17T09:15:47.115Z,2.00
2022-08-17T09:19:02.448Z,2.30
2022-08-17T09:21:14.900Z,2.05
2022-08-17T09:23:59.421Z,2.35
2022-08-17T09:29:06.997Z,2.40
2022-08-17T09:31:46.500Z,2.58
2022-08-17T09:34:18.326Z,2.55
2022-08-17T09:36:52.086Z,2.25
2022-08-17T09:39:31.027Z,2.50
2022-08-17T09:42:08.416Z,2.05
2022-08-17T09:44:41.214Z,2.42
2022-08-17T09:47:12.766Z,2.70
2022-08-17T09:49:47.448Z,2.72
2022-08-17T09:52:18.133Z,2.30
2022-08-17T09:54:45.421Z,2.92
2022-08-17T09:57:30.347Z,2.40
2022-08-17T09:59:57.140Z,2.58
2022-08-17T10:02:38.592Z,2.35
2022-08-17T10:05:15.289Z,2.83
2022-08-17T10:07:47.661Z,2.40
2022-08-17T10:10:26.162Z,2.25
2022-08-17T10:13:01.706Z,2.65
2022-08-17T10:15:33.458Z,2.03
2022-08-17T10:18:18.940Z,2.72
2022-08-17T10:21:25.110Z,2.17
2022-08-17T10:24:15.853Z,2.40
2022-08-17T10:26:57.248Z,2.53
2022-08-17T10:29:48.984Z,2.08
2022-08-17T10:32:46.553Z,2.60
2022-08-17T10:35:29.554Z,2.60
2022-08-17T10:38:15.413Z,2.33
2022-08-17T10:41:07.257Z,2.25
2022-08-17T10:44:28.561Z,2.30
2022-08-17T10:47:02.792Z,2.17
2022-08-17T10:49:54.056Z,2.25
2022-08-17T10:52:20.973Z,2.47
2022-08-17T10:54:59.048Z,2.03
2022-08-17T10:57:34.449Z,2.30
2022-08-17T11:00:03.632Z,2.33
2022-08-17T11:02:41.306Z,2.17
2022-08-17T11:05:28.951Z,2.42
2022-08-17T11:08:05.492Z,2.38
2022-08-17T11:11:09.216Z,2.47
2022-08-17T11:14:17.325Z,2.15
2022-08-17T11:17:20.614Z,2.33
2022-08-17T11:20:20.313Z,2.78
2022-08-17T11:23:14.746Z,2.53
2022-08-17T11:26:04.112Z,2.25
2022-08-17T11:28:44.415Z,2.50
2022-08-17T11:31:38.386Z,2.83
2022-08-17T11:34:12.117Z,2.35
2022-08-17T11:36:48.980Z,2.40
2022-08-17T11:39:24.491Z,2.53
2022-08-17T11:42:19.968Z,2.30
2022-08-17T11:45:32.077Z,2.47
2022-08-17T11:48:41.464Z,2.63
2022-08-17T11:51:33.815Z,2.35
2022-08-17T11:54:31.783Z,2.70
2022-08-17T11:56:53.357Z,2.47
2022-08-17T11:59:50.293Z,2.85
2022-08-17T12:02:19.835Z,2.53
2022-08-17T12:05:21.027Z,2.30
2022-08-17T12:07:54.805Z,2.28
2022-08-17T12:10:31.613Z,2.55
2022-08-17T12:13:00.182Z,2.20
2022-08-17T12:15:36.699Z,2.22
2022-08-17T12:18:03.518Z,1.90
2022-08-17T12:20:37.303Z,2.13
2022-08-17T12:23:21.166Z,2.22
2022-08-17T12:25:58.198Z,2.15
2022-08-17T12:28:27.874Z,2.10
2022-08-17T12:31:05.485Z,2.22
2022-08-17T12:33:32.088Z,2.10
2022-08-17T12:36:05.437Z,2.10
2022-08-17T12:38:37.347Z,2.30
2022-08-17T12:41:27.467Z,2.30
2022-08-17T12:44:01.543Z,2.20
2022-08-17T12:46:34.807Z,1.90
2022-08-17T12:49:32.803Z,2.42
2022-08-17T12:52:12.690Z,2.28
2022-08-17T12:54:48.698Z,2.65
2022-08-17T12:57:18.596Z,2.28
2022-08-17T12:59:49.287Z,2.70
2022-08-17T13:02:28.394Z,2.63
2022-08-17T13:04:57.332Z,3.53
2022-08-17T13:07:29.086Z,2.80
2022-08-17T13:09:55.682Z,2.30
2022-08-17T13:12:34.575Z,2.70
2022-08-17T13:15:01.399Z,2.20
2022-08-17T13:17:31.880Z,2.55
2022-08-17T13:22:26.480Z,3.20
2022-08-17T13:24:58.664Z,2.38
2022-08-17T13:27:27.145Z,2.20
2022-08-17T13:29:57.513Z,2.22
2022-08-17T13:32:44.308Z,2.38
2022-08-17T13:35:50.321Z,2.15
2022-08-17T13:38:36.539Z,2.38
2022-08-17T13:41:04.038Z,2.38
2022-08-17T13:43:44.440Z,2.38
2022-08-17T13:46:22.679Z,2.40
2022-08-17T13:49:05.301Z,2.80
2022-08-17T13:51:43.222Z,2.50
2022-08-17T13:54:36.640Z,2.35
2022-08-17T13:57:06.691Z,2.10
2022-08-17T13:59:54.804Z,1.85
2022-08-17T14:02:23.100Z,2.28
2022-08-17T14:04:55.634Z,2.17
2022-08-17T14:07:27.689Z,1.80
2022-08-17T14:09:59.018Z,2.47
2022-08-17T14:12:28.340Z,1.90
2022-08-17T14:14:56.392Z,2.20
2022-08-17T14:17:24.517Z,2.15
2022-08-17T14:19:51.485Z,2.13
2022-08-17T14:22:31.429Z,2.10
2022-08-17T14:24:59.142Z,1.90
2022-08-17T14:27:28.183Z,2.22
2022-08-17T14:29:55.661Z,2.38
2022-08-17T14:32:25.464Z,2.20
2022-08-17T14:34:52.766Z,2.20
2022-08-17T14:37:21.022Z,2.35
2022-08-17T14:39:47.679Z,2.40
2022-08-17T14:42:15.549Z,2.53
2022-08-17T14:44:42.095Z,2.90
2022-08-17T14:47:15.895Z,2.40
2022-08-17T14:49:42.578Z,2.45
2022-08-17T14:52:10.734Z,2.90
2022-08-17T14:54:37.651Z,3.13
2022-08-17T14:57:24.638Z,2.83
2022-08-17T14:59:55.129Z,2.95
2022-08-17T15:02:29.934Z,3.17
2022-08-17T15:05:02.055Z,3.13
2022-08-17T15:07:30.680Z,2.83
2022-08-17T15:09:58.754Z,2.95
2022-08-17T15:12:32.013Z,2.85
2022-08-17T15:15:00.648Z,2.90
2022-08-17T15:17:27.228Z,3.15
2022-08-17T15:20:17.838Z,3.28
2022-08-17T15:22:45.781Z,3.60
2022-08-17T15:25:12.961Z,3.30
2022-08-17T15:27:40.406Z,3.45
2022-08-17T15:30:07.877Z,4.40
2022-08-17T15:32:37.946Z,4.15
2022-08-17T15:35:05.976Z,4.80
2022-08-17T15:37:32.542Z,5.03
2022-08-17T15:40:01.247Z,4.70
2022-08-17T15:42:27.995Z,5.25
2022-08-17T15:44:57.373Z,5.15
2022-08-17T15:47:24.506Z,4.88
2022-08-17T15:49:51.095Z,4.65
2022-08-17T15:52:29.644Z,5.20
2022-08-17T15:54:59.799Z,5.72
2022-08-17T15:57:27.387Z,5.05
2022-08-17T15:59:58.397Z,5.50
2022-08-17T16:03:45.549Z,5.75
2022-08-17T16:05:21.922Z,6.45
2022-08-17T16:07:51.985Z,7.03
2022-08-17T16:10:19.422Z,6.28
2022-08-17T16:12:47.543Z,6.15
2022-08-17T16:15:14.702Z,5.60
2022-08-17T16:17:44.014Z,6.47
2022-08-17T16:20:20.357Z,6.18
2022-08-17T16:22:48.664Z,6.38
2022-08-17T16:25:21.090Z,6.35
2022-08-17T16:27:53.397Z,6.47
2022-08-17T16:30:22.973Z,7.57
2022-08-17T16:32:51.408Z,6.78
2022-08-17T16:35:20.515Z,6.93
2022-08-17T16:37:47.989Z,6.78
2022-08-17T16:40:16.660Z,6.93
2022-08-17T16:42:45.302Z,6.88
2022-08-17T16:45:20.956Z,7.10
2022-08-17T16:47:50.279Z,7.55
2022-08-17T16:50:20.523Z,7.63
2022-08-17T16:52:48.499Z,7.75
2022-08-17T16:55:17.990Z,7.72
2022-08-17T16:57:48.572Z,8.93
2022-08-17T17:00:18.252Z,8.43
2022-08-17T17:02:47.287Z,8.25
2022-08-17T17:05:44.817Z,7.93
2022-08-17T17:08:26.706Z,8.68
2022-08-17T17:10:55.909Z,9.00
2022-08-17T17:13:29.343Z,9.00
2022-08-17T17:16:21.748Z,9.85
2022-08-17T17:19:09.288Z,8.70
2022-08-17T17:21:47.360Z,10.30
2022-08-17T17:24:17.278Z,9.38
2022-08-17T17:27:07.323Z,9.13
2022-08-17T17:29:48.526Z,10.30
2022-08-17T17:32:25.599Z,9.75
2022-08-17T17:34:58.752Z,9.63
2022-08-17T17:37:32.601Z,9.30
2022-08-17T17:40:04.093Z,9.50
2022-08-17T17:42:32.234Z,8.73
2022-08-17T17:45:32.781Z,9.60
2022-08-17T17:47:59.302Z,9.93
2022-08-17T17:50:51.660Z,8.93
2022-08-17T17:53:35.207Z,9.70
2022-08-17T17:56:43.007Z,9.27
2022-08-17T17:59:12.750Z,8.30
2022-08-17T18:01:59.642Z,9.07
2022-08-17T18:04:31.894Z,8.73
2022-08-17T18:07:10.146Z,8.35
2022-08-17T18:10:01.250Z,9.00
2022-08-17T18:12:44.428Z,8.43
2022-08-17T18:15:34.788Z,8.38
2022-08-17T18:18:14.599Z,9.17
2022-08-17T18:20:53.137Z,8.80
2022-08-17T18:23:27.687Z,9.68
2022-08-17T18:25:55.063Z,8.85
2022-08-17T18:28:31.354Z,8.80
2022-08-17T18:31:19.243Z,8.50
2022-08-17T18:33:52.375Z,8.07
2022-08-17T18:36:28.205Z,8.27
2022-08-17T18:39:17.130Z,8.73
2022-08-17T18:41:47.319Z,7.97
2022-08-17T18:44:38.030Z,9.07
2022-08-17T18:47:12.968Z,8.57
2022-08-17T18:49:40.522Z,8.05
2022-08-17T18:52:13.086Z,8.00
2022-08-17T18:54:39.755Z,9.65
2022-08-17T18:57:07.607Z,9.07
2022-08-17T18:59:43.963Z,8.30
2022-08-17T19:02:24.867Z,10.00
2022-08-17T19:05:09.752Z,8.93
2022-08-17T19:07:45.226Z,9.40
2022-08-17T19:10:28.845Z,10.70
2022-08-17T19:13:12.546Z,11.25
2022-08-17T19:15:47.847Z,10.15
2022-08-17T19:18:41.506Z,10.10
2022-08-17T19:21:17.102Z,9.55
2022-08-17T19:24:12.208Z,9.70
2022-08-17T19:26:54.709Z,12.48
2022-08-17T19:29:58.116Z,12.25
2022-08-17T19:32:31.235Z,14.23
2022-08-17T19:34:58.183Z,13.35
2022-08-17T19:37:32.618Z,14.40
2022-08-17T19:40:48.944Z,13.60
2022-08-17T19:43:43.186Z,12.70
2022-08-17T19:46:24.563Z,18.20
2022-08-17T19:48:54.075Z,19.40
2022-08-17T19:51:34.261Z,17.08
2022-08-17T19:54:09.928Z,16.33
2022-08-17T19:56:51.687Z,17.33
2022-08-17T19:59:35.980Z,15.18
2022-08-17T20:02:41.976Z,16.13
2022-08-17T20:05:15.593Z,16.73
2022-08-17T20:07:53.329Z,18.23
2022-08-17T20:10:48.006Z,17.52
2022-08-17T20:16:01.377Z,18.08
2022-08-17T20:18:34.015Z,19.45
2022-08-17T20:21:21.225Z,22.17
2022-08-17T20:23:55.884Z,21.10
2022-08-17T20:26:28.820Z,20.38
2022-08-17T20:29:04.393Z,19.75
2022-08-17T20:31:52.507Z,18.13
2022-08-17T20:34:34.860Z,17.90
2022-08-17T20:37:06.148Z,17.27
2022-08-17T20:39:40.674Z,16.75
2022-08-17T20:42:10.110Z,15.43
2022-08-17T20:44:39.127Z,16.35
2022-08-17T20:47:07.897Z,18.33
2022-08-17T20:49:47.239Z,21.08
2022-08-17T20:52:18.376Z,21.33
2022-08-17T20:54:47.131Z,21.13
2022-08-17T20:57:43.794Z,24.42
2022-08-17T21:00:16.840Z,24.20
2022-08-17T21:02:49.599Z,25.33
2022-08-17T21:05:26.118Z,26.02
2022-08-17T21:07:59.970Z,26.23
2022-08-17T21:10:26.447Z,24.80
2022-08-17T21:12:59.645Z,20.35
2022-08-17T21:15:44.966Z,22.23
2022-08-17T21:18:39.222Z,23.48
2022-08-17T21:21:24.447Z,24.27
2022-08-17T21:24:15.313Z,23.17
2022-08-17T21:27:06.578Z,20.73
2022-08-17T21:29:34.038Z,22.90
2022-08-17T21:32:06.671Z,21.30
2022-08-17T21:34:42.583Z,22.65
2022-08-17T21:37:31.099Z,21.75
2022-08-17T21:40:12.973Z,23.52
2022-08-17T21:42:46.795Z,26.80
2022-08-17T21:45:35.035Z,26.40
2022-08-17T21:48:20.166Z,26.02
2022-08-17T21:50:57.903Z,25.38
2022-08-17T21:53:32.697Z,26.27
2022-08-17T21:55:59.822Z,26.83
2022-08-17T21:58:33.721Z,25.55
2022-08-17T22:01:25.322Z,24.95
2022-08-17T22:04:25.808Z,26.50
2022-08-17T22:06:57.161Z,28.38
2022-08-17T22:09:41.393Z,27.98
2022-08-17T22:12:16.491Z,30.67
2022-08-17T22:14:52.889Z,26.98
2022-08-17T22:17:35.993Z,23.95
2022-08-17T22:20:13.092Z,25.73
2022-08-17T22:23:04.491Z,29.90
2022-08-17T22:25:33.313Z,30.60
2022-08-17T22:28:02.636Z,34.10
2022-08-17T22:30:34.464Z,32.65
2022-08-17T22:33:22.582Z,31.00
2022-08-17T22:35:49.905Z,35.83
2022-08-17T22:38:18.930Z,33.50
2022-08-17T22:40:54.343Z,29.65
2022-08-17T22:43:26.197Z,30.75
2022-08-17T22:45:56.078Z,27.30
2022-08-17T22:48:27.189Z,29.55
2022-08-17T22:54:04.453Z,28.55
2022-08-17T22:56:49.885Z,30.40
2022-08-17T22:59:36.159Z,23.30
2022-08-17T23:02:16.422Z,21.80
2022-08-17T23:04:47.676Z,24.08
2022-08-17T23:07:14.682Z,29.38
2022-08-17T23:09:41.361Z,31.48
2022-08-17T23:12:11.612Z,32.42
2022-08-17T23:14:40.973Z,28.45
2022-08-17T23:17:08.341Z,28.73
2022-08-17T23:19:35.447Z,25.65
2022-08-17T23:22:04.287Z,26.77
2022-08-17T23:24:35.584Z,29.13
2022-08-17T23:29:29.588Z,35.88
2022-08-17T23:31:57.923Z,37.05
2022-08-17T23:34:25.606Z,37.00
2022-08-17T23:36:53.145Z,35.78
2022-08-17T23:39:24.441Z,35.00
2022-08-17T23:41:53.513Z,33.13
2022-08-17T23:44:23.399Z,30.50
2022-08-17T23:46:53.520Z,38.42
2022-08-17T23:49:20.124Z,35.25
2022-08-17T23:51:48.024Z,33.47
2022-08-17T23:54:26.020Z,37.83
2022-08-17T23:56:52.892Z,39.83
2022-08-17T23:59:21.599Z,38.80
